X

Important NEWS



New Hub Active

Miami is our new hub! Old members can request transfer via hr@dlxairways.net

Thank you very much and have nice flight.


Deluxe Airways.

X

Tours



Hello again, we created one nice test tour for all pilots to attend. also this is ment to be testing of our tour system

Available Tours

If you find some issues please inform us.

Thank you very much and have nice flight.


Deluxe Airways.

 METAR AND TAF INFORMATION
ArrayMETAR FOR LYTV
55972361 5 LYTV 172130Z VRB01KT CAVOK 18/15 Q1015 LYTV 2019-08-17T21:30:00Z 42.38 18.72 18.0 15.0 0 1 6.21 29.970472 VFR METAR 5.0 LYTV 172100Z VRB02KT CAVOK 19/16 Q1015 LYTV 2019-08-17T21:00:00Z 42.38 18.72 19.0 16.0 0 2 6.21 29.970472 VFR METAR 5.0 LYTV 172030Z VRB01KT CAVOK 19/15 Q1014 LYTV 2019-08-17T20:30:00Z 42.38 18.72 19.0 15.0 0 1 6.21 29.940945 VFR METAR 5.0 LYTV 172000Z VRB02KT CAVOK 20/16 Q1014 LYTV 2019-08-17T20:00:00Z 42.38 18.72 20.0 16.0 0 2 6.21 29.940945 VFR METAR 5.0

 AIRPORT MAP

 RUNWAY INFORMATION
Runway 14 Runway length 8208 ft Runway width 148 ft
Runway elevation 7 ft Runway displaced threshold 0 ft Runway heading 139
Runway 32 Runway length 8208 ft Runway width 148 ft
Runway elevation 16 ft Runway displaced threshold 0 ft Runway heading 319

 AIRPORT FREQUENCIES
Type ARR Name APP Frequency 118 MHZ
Type TWR Name TWR Frequency 118 MHZ

 AIRPORT NEAR NAVIGATION AIDS
Type NDB Name Tivat Frequency 345 KHZ



Powered by Virtual Airlines Manager [v2.6.2]

Template code change by DeluxeAir